Strona główna
METAR-TAF:

Lotnisko :

Asunción, Paragwaj

Port lotniczy Asunción

Szerokość geograficzna: 25-16S, Długość geograficzna: 057-38W, wysokość: 101 m

Aktualna obserwacja pogody

Raport powstał 58 minut temu, godzina 23:00 UTC
Wiatr 5 kt od wschód
Temperatura 26°C
Wilgotność 34%
Ciśnienie 1012 hPa
Widzialność: 9000 m

METAR: SGAS 272300Z 09005KT 9000 NSC 26/09 Q1012

czas: 19:58 (23:58 UTC)

Prognoza

Raport powstał 1 godzina i 11 minut temu, godzina 22:47 UTC
Prognoza ważna od 28 godzina 00 UTC do 29 godzina 00 UTC
Wiatr 4 kt od wschodnio-południowy wschód
Widzialność: 7000 m
Stopniowe zmiany
od 28 godzina 01 UTC do 28 godzina 04 UTC
Wiatr kt od północ
Widzialność: 5000 m
dym
Od 28 godzina 0900 UTC
Wiatr 7 kt od wschodnio-północny wschód
Widzialność 10 km lub więcej
Brak chmur poniżej 1500 m i brak chmur cumulonimbus

TAF: SGAS 272247Z 2800/2900 11004KT 7000 NSC TX37/2819Z TN19/2810Z BECMG 2801/2804 00000KT 5000 FU FM280900 06007KT CAVOK

METAR-TAF

Obserwacja i prognoza pogody dla ponad 4000 lotnisk (raport METAR i TAF).

Dostępne stacje oznaczono żółtymi i czerwonymi punktami na mapie.

Najedź kursorem aby zobaczyć nazwę stacji.

Kliknij aby zobaczyć obserwacje i prognozy pogody.

Aby zmienić mapę: kliknij na zielony przycisk z czarnym krzyżykiem, aby powiększyć; na zielony przycisk z myślnikiem, aby pomniejszyć; na zielone strzałki, aby przejść do map sąsiednich.


METAR-TAF: